Time;durP1;ratioP1;P1;durP2;ratioP2;P2;SDS_P1;SDS_P2;PMS_P1;PMS_P2;Temp;Humidity;BMP_temperature;BMP_pressure;BME280_temperature;BME280_humidity;BME280_pressure;Samples;Min_cycle;Max_cycle;Signal;HPM_P1;HPM_P2
2022/06/19 00:01:05;;;;;;;8.90;7.90;;;24.70;58.80;;;;;;5033756;28;20096;-78
2022/06/19 00:03:34;;;;;;;8.88;7.35;;;24.70;59.10;;;;;;5033832;28;20496;-79
2022/06/19 00:06:01;;;;;;;8.73;7.05;;;24.70;59.10;;;;;;5032130;28;20524;-79
2022/06/19 00:08:30;;;;;;;9.13;7.70;;;24.80;59.20;;;;;;5031936;28;20050;-79
2022/06/19 00:10:58;;;;;;;8.57;7.05;;;24.70;58.70;;;;;;5033742;28;20030;-78
2022/06/19 00:13:24;;;;;;;10.40;6.97;;;24.50;59.10;;;;;;5029235;28;20060;-77
2022/06/19 00:15:50;;;;;;;6.60;5.90;;;24.40;59.60;;;;;;5033670;28;20052;-79
2022/06/19 00:18:16;;;;;;;7.82;6.70;;;24.40;59.70;;;;;;5032296;28;20031;-78
2022/06/19 00:20:41;;;;;;;8.32;7.40;;;24.40;59.50;;;;;;5030121;28;20029;-78
2022/06/19 00:23:08;;;;;;;8.60;6.78;;;24.30;59.40;;;;;;5033345;28;20036;-78
2022/06/19 00:25:35;;;;;;;9.15;6.43;;;24.30;59.50;;;;;;5032324;28;20225;-78
2022/06/19 00:28:01;;;;;;;7.60;6.35;;;24.30;59.40;;;;;;5033311;28;20076;-78
2022/06/19 00:30:27;;;;;;;9.32;6.50;;;24.40;59.30;;;;;;5027274;28;20029;-79
2022/06/19 00:32:53;;;;;;;9.90;6.38;;;24.40;59.10;;;;;;5012337;28;20412;-78
2022/06/19 00:35:19;;;;;;;9.82;5.63;;;24.40;59.10;;;;;;5012406;28;20034;-78
2022/06/19 00:37:46;;;;;;;9.13;6.22;;;24.40;59.40;;;;;;5013730;28;20026;-79
2022/06/19 00:40:13;;;;;;;8.85;6.47;;;24.40;59.50;;;;;;5016238;28;20038;-78
2022/06/19 00:42:39;;;;;;;8.30;6.57;;;24.40;58.90;;;;;;5013574;28;20025;-79
2022/06/19 00:45:05;;;;;;;7.13;6.20;;;24.30;58.90;;;;;;5013320;28;20044;-78
2022/06/19 00:47:35;;;;;;;7.28;6.18;;;24.20;59.00;;;;;;5012259;28;20018;-79
2022/06/19 00:50:27;;;;;;;8.57;6.30;;;24.10;59.40;;;;;;5020780;28;20025;-79
2022/06/19 00:52:53;;;;;;;9.85;6.60;;;23.90;59.60;;;;;;5034586;28;20083;-78
2022/06/19 00:55:22;;;;;;;6.35;5.50;;;23.90;60.00;;;;;;5031897;28;20080;-78
2022/06/19 00:58:04;;;;;;;7.10;5.20;;;23.70;60.50;;;;;;5032114;28;20029;-78
2022/06/19 01:00:31;;;;;;;7.85;4.93;;;23.70;60.60;;;;;;5027635;28;20496;-77
2022/06/19 01:03:06;;;;;;;8.68;5.88;;;23.70;61.00;;;;;;5032453;28;20025;-78
2022/06/19 01:05:35;;;;;;;9.23;5.80;;;23.70;60.50;;;;;;5032674;28;20032;-78
2022/06/19 01:08:02;;;;;;;7.18;5.93;;;23.80;59.80;;;;;;5029875;28;20095;-77
2022/06/19 01:10:32;;;;;;;9.00;5.80;;;23.80;60.00;;;;;;5013045;28;20045;-77
2022/06/19 01:12:58;;;;;;;6.75;5.80;;;23.80;59.80;;;;;;5013259;28;20018;-79
2022/06/19 01:15:25;;;;;;;7.75;5.88;;;24.00;59.50;;;;;;5011676;28;20037;-78
2022/06/19 01:17:55;;;;;;;7.90;5.82;;;24.10;59.30;;;;;;5012654;28;20022;-78
2022/06/19 01:20:22;;;;;;;7.97;5.95;;;24.10;59.20;;;;;;5031090;28;20048;-78
2022/06/19 01:23:10;;;;;;;6.45;5.53;;;24.10;58.90;;;;;;5031307;28;20021;-78
2022/06/19 01:25:39;;;;;;;6.65;5.90;;;24.10;58.70;;;;;;5021513;28;20022;-77
2022/06/19 01:31:01;;;;;;;6.72;5.63;;;23.70;59.40;;;;;;5013267;28;20033;-77
2022/06/19 01:33:43;;;;;;;7.60;5.20;;;23.40;60.00;;;;;;5029318;28;20072;-78
2022/06/19 01:36:12;;;;;;;7.75;5.60;;;23.30;60.40;;;;;;5035161;28;20468;-79
2022/06/19 01:38:40;;;;;;;6.57;5.07;;;23.30;60.50;;;;;;5031258;28;20025;-79
2022/06/19 01:41:33;;;;;;;8.05;5.55;;;23.30;60.80;;;;;;5035128;28;20036;-78
2022/06/19 01:43:59;;;;;;;7.47;5.00;;;23.20;61.10;;;;;;5035185;28;20063;-79
2022/06/19 01:46:27;;;;;;;6.75;5.05;;;23.50;60.80;;;;;;5035142;28;20121;-77
2022/06/19 01:48:53;;;;;;;6.38;5.47;;;23.50;60.10;;;;;;5034017;28;20100;-77
2022/06/19 01:51:19;;;;;;;6.45;4.97;;;23.40;60.20;;;;;;5034767;28;20357;-78
2022/06/19 01:54:03;;;;;;;7.45;5.38;;;23.40;60.00;;;;;;5035041;28;20490;-78
2022/06/19 01:56:29;;;;;;;7.05;5.03;;;23.40;59.80;;;;;;5036181;28;20045;-78
2022/06/19 01:59:01;;;;;;;6.10;4.82;;;23.20;60.30;;;;;;5033762;28;20034;-78
2022/06/19 02:01:28;;;;;;;8.88;4.80;;;23.10;60.60;;;;;;5036311;28;20025;-79
2022/06/19 02:03:57;;;;;;;5.53;4.30;;;23.10;60.30;;;;;;5035995;28;20029;-78
2022/06/19 02:06:30;;;;;;;6.75;5.40;;;23.00;60.90;;;;;;5034805;28;20427;-78
2022/06/19 02:08:56;;;;;;;7.38;4.90;;;23.10;60.70;;;;;;5020964;28;20514;-77
2022/06/19 02:11:22;;;;;;;5.88;4.78;;;23.10;60.50;;;;;;5014840;28;20571;-78
2022/06/19 02:13:49;;;;;;;6.72;5.15;;;23.10;60.30;;;;;;5027517;28;20037;-77
2022/06/19 02:16:20;;;;;;;6.75;5.40;;;23.10;60.30;;;;;;5033581;28;20057;-78
2022/06/19 02:18:49;;;;;;;8.95;5.00;;;23.20;60.00;;;;;;5035411;28;20056;-78
2022/06/19 02:21:40;;;;;;;5.70;5.10;;;23.20;59.80;;;;;;5035842;28;20033;-78
2022/06/19 02:24:09;;;;;;;6.90;4.90;;;23.10;60.10;;;;;;5035146;28;20091;-77
2022/06/19 02:26:37;;;;;;;6.68;5.32;;;23.20;60.00;;;;;;5034478;28;20023;-78
2022/06/19 02:29:06;;;;;;;6.28;5.25;;;23.20;59.90;;;;;;5034639;28;20047;-78
2022/06/19 02:31:34;;;;;;;7.50;5.60;;;23.20;59.80;;;;;;5034556;28;20021;-78
2022/06/19 02:34:05;;;;;;;7.05;4.70;;;23.10;59.90;;;;;;5035618;28;20028;-78
2022/06/19 02:36:52;;;;;;;6.65;5.07;;;23.10;59.80;;;;;;5032100;28;20434;-77
2022/06/19 02:40:11;;;;;;;5.43;4.40;;;23.20;59.70;;;;;;5035566;28;20037;-77
2022/06/19 02:42:47;;;;;;;6.68;4.70;;;23.20;59.60;;;;;;4974502;28;20437;-78
2022/06/19 02:45:17;;;;;;;5.38;4.75;;;23.10;59.90;;;;;;4958291;28;20397;-78
2022/06/19 02:47:44;;;;;;;6.10;5.03;;;23.20;59.50;;;;;;4973728;28;20038;-78
2022/06/19 02:50:15;;;;;;;5.90;4.60;;;23.20;59.80;;;;;;4974191;28;20035;-78
2022/06/19 02:52:41;;;;;;;5.78;4.60;;;23.20;59.70;;;;;;4974494;28;20123;-78
2022/06/19 02:55:07;;;;;;;7.13;5.15;;;23.20;59.70;;;;;;4958106;28;20027;-78
2022/06/19 02:57:33;;;;;;;7.25;5.30;;;23.30;59.60;;;;;;4973271;28;20065;-77
2022/06/19 02:59:59;;;;;;;6.55;5.18;;;23.40;59.80;;;;;;4974460;28;20487;-79
2022/06/19 03:02:26;;;;;;;5.63;4.80;;;23.50;60.00;;;;;;4974006;28;20019;-77
2022/06/19 03:04:58;;;;;;;6.05;4.88;;;23.50;59.60;;;;;;4957849;28;20035;-77
2022/06/19 03:07:26;;;;;;;7.18;4.70;;;23.40;59.40;;;;;;4956286;28;20043;-77
2022/06/19 03:09:52;;;;;;;5.50;4.53;;;23.30;59.40;;;;;;4974094;28;20070;-77
2022/06/19 03:12:19;;;;;;;5.57;4.43;;;23.20;59.60;;;;;;4957669;28;20023;-78
2022/06/19 03:14:45;;;;;;;5.63;4.63;;;23.10;59.90;;;;;;4972992;28;20037;-77
2022/06/19 03:17:15;;;;;;;5.53;4.70;;;23.20;60.00;;;;;;5023646;28;20116;-77
2022/06/19 03:19:41;;;;;;;7.38;4.95;;;23.10;60.00;;;;;;5034451;28;20079;-77
2022/06/19 03:22:07;;;;;;;5.68;4.72;;;23.00;60.10;;;;;;5033437;28;20032;-79
2022/06/19 03:24:33;;;;;;;5.75;4.70;;;23.00;60.50;;;;;;5033772;28;20048;-78
2022/06/19 03:26:59;;;;;;;6.03;4.68;;;23.00;60.30;;;;;;5034494;28;20091;-78
2022/06/19 03:29:24;;;;;;;5.13;4.60;;;23.00;60.50;;;;;;5034128;28;20048;-77
2022/06/19 03:31:50;;;;;;;9.00;4.57;;;23.00;60.40;;;;;;5033493;28;20029;-79
2022/06/19 03:34:16;;;;;;;6.80;4.80;;;23.00;60.70;;;;;;5032141;28;20036;-77
2022/06/19 03:36:42;;;;;;;5.60;4.28;;;23.10;60.60;;;;;;5033295;28;20072;-78
2022/06/19 03:39:07;;;;;;;6.43;4.40;;;23.30;60.30;;;;;;5032971;28;20037;-77
2022/06/19 03:41:33;;;;;;;5.80;4.70;;;23.50;59.70;;;;;;5034377;28;20100;-78
2022/06/19 03:43:59;;;;;;;6.60;4.43;;;23.50;59.80;;;;;;5022580;28;20028;-77
2022/06/19 03:46:24;;;;;;;5.93;4.25;;;23.30;60.30;;;;;;5014674;28;20447;-76
2022/06/19 03:48:51;;;;;;;6.07;4.32;;;23.20;60.50;;;;;;5014392;28;20030;-78
2022/06/19 03:51:22;;;;;;;5.28;4.38;;;23.30;60.40;;;;;;5027622;28;20113;-78
2022/06/19 03:53:49;;;;;;;5.88;3.70;;;23.50;60.10;;;;;;5032767;28;20022;-78
2022/06/19 03:56:21;;;;;;;6.18;4.00;;;23.60;59.80;;;;;;5032546;28;20022;-76
2022/06/19 03:58:47;;;;;;;5.10;4.35;;;23.70;60.00;;;;;;5032346;28;20060;-77
2022/06/19 04:01:22;;;;;;;8.75;7.85;;;23.70;59.60;;;;;;5033270;28;20388;-77
2022/06/19 04:03:49;;;;;;;5.38;4.10;;;23.80;59.90;;;;;;5032599;28;20025;-77
2022/06/19 04:06:17;;;;;;;4.63;4.10;;;23.90;59.70;;;;;;5034128;28;20036;-79
2022/06/19 04:08:47;;;;;;;5.22;4.22;;;23.90;59.80;;;;;;5027982;28;20060;-78
2022/06/19 04:11:15;;;;;;;6.57;4.57;;;24.10;59.70;;;;;;5032813;28;20032;-78
2022/06/19 04:13:41;;;;;;;4.85;3.78;;;24.20;59.50;;;;;;5032705;28;20507;-77
2022/06/19 04:16:10;;;;;;;5.93;4.03;;;24.10;59.20;;;;;;5028437;28;20033;-78
2022/06/19 04:18:36;;;;;;;5.47;4.10;;;24.20;59.90;;;;;;5022338;28;20128;-78
2022/06/19 04:21:03;;;;;;;5.15;3.80;;;24.30;59.30;;;;;;5032330;28;20033;-78
2022/06/19 04:23:29;;;;;;;5.57;4.18;;;24.40;59.40;;;;;;5031663;28;20398;-77
2022/06/19 04:25:55;;;;;;;5.40;3.80;;;24.40;59.30;;;;;;5033369;28;20379;-79
2022/06/19 04:28:24;;;;;;;5.15;4.13;;;24.50;59.20;;;;;;5031037;28;20460;-78
2022/06/19 04:30:52;;;;;;;5.75;4.50;;;24.60;59.40;;;;;;5032084;28;20025;-78
2022/06/19 04:33:20;;;;;;;5.55;4.00;;;24.70;59.30;;;;;;5033404;28;20029;-79
2022/06/19 04:35:47;;;;;;;7.35;3.92;;;24.60;59.30;;;;;;5033382;28;20017;-79
2022/06/19 04:38:14;;;;;;;5.05;3.72;;;24.80;59.10;;;;;;5031867;28;20120;-77
2022/06/19 04:40:40;;;;;;;4.63;3.67;;;24.70;59.00;;;;;;5032091;28;20048;-78
2022/06/19 04:43:06;;;;;;;7.80;3.70;;;24.90;58.90;;;;;;5033129;28;20026;-78
2022/06/19 04:45:33;;;;;;;5.05;3.83;;;25.00;58.90;;;;;;5032211;28;20067;-78
2022/06/19 04:47:59;;;;;;;5.80;3.75;;;25.00;59.00;;;;;;5031766;28;20022;-79
2022/06/19 04:50:25;;;;;;;4.75;4.00;;;25.10;58.60;;;;;;5031360;28;20033;-78
2022/06/19 04:52:51;;;;;;;5.82;3.95;;;25.20;57.90;;;;;;5032433;28;20045;-79
2022/06/19 04:55:17;;;;;;;4.30;3.58;;;25.10;57.50;;;;;;5032956;28;20057;-78
2022/06/19 04:57:44;;;;;;;5.47;3.60;;;25.20;58.40;;;;;;5029892;28;20018;-78
2022/06/19 05:00:13;;;;;;;5.60;3.97;;;25.30;58.20;;;;;;5033124;28;20042;-79
2022/06/19 05:02:39;;;;;;;6.88;4.20;;;25.60;57.90;;;;;;5032791;28;20083;-79
2022/06/19 05:05:06;;;;;;;6.68;3.70;;;25.90;57.80;;;;;;5031345;28;20056;-78
2022/06/19 05:07:32;;;;;;;6.43;3.83;;;26.10;57.70;;;;;;5030398;28;20069;-77
2022/06/19 05:09:58;;;;;;;4.57;3.53;;;26.00;56.70;;;;;;5030809;28;20362;-79
2022/06/19 05:12:23;;;;;;;5.78;3.50;;;26.10;56.80;;;;;;5028832;28;20521;-78
2022/06/19 05:14:49;;;;;;;6.85;3.72;;;26.20;57.10;;;;;;5031671;28;20060;-79
2022/06/19 05:17:15;;;;;;;5.22;3.42;;;26.30;56.80;;;;;;5030479;28;20144;-79
2022/06/19 05:19:41;;;;;;;5.13;3.80;;;26.50;56.60;;;;;;5031039;28;20041;-78
2022/06/19 05:22:07;;;;;;;4.18;3.45;;;26.60;56.50;;;;;;5031452;28;20380;-78
2022/06/19 05:24:33;;;;;;;4.55;3.60;;;26.80;56.40;;;;;;5031601;28;20040;-78
2022/06/19 05:26:59;;;;;;;4.55;3.30;;;26.80;55.90;;;;;;5031068;28;20022;-77
2022/06/19 05:29:25;;;;;;;5.35;3.47;;;26.70;56.00;;;;;;5032598;28;20029;-79
2022/06/19 05:31:51;;;;;;;5.78;3.38;;;26.80;55.80;;;;;;5027743;28;20026;-78
2022/06/19 05:34:17;;;;;;;4.72;3.33;;;26.90;55.70;;;;;;5012785;28;20034;-78
2022/06/19 05:36:42;;;;;;;5.90;3.50;;;27.00;55.70;;;;;;5012492;28;20503;-77
2022/06/19 05:39:09;;;;;;;4.20;3.05;;;27.20;55.60;;;;;;5032247;28;20041;-76
2022/06/19 05:41:42;;;;;;;4.32;3.15;;;27.40;55.00;;;;;;5024635;28;20077;-76
2022/06/19 05:44:10;;;;;;;4.97;3.30;;;27.40;55.00;;;;;;5012503;28;20033;-77
2022/06/19 05:46:36;;;;;;;5.22;3.03;;;27.40;54.20;;;;;;5012639;28;20080;-76
2022/06/19 05:49:02;;;;;;;4.57;2.78;;;27.40;52.40;;;;;;5028159;28;20025;-78
2022/06/19 05:51:27;;;;;;;5.70;3.42;;;27.60;53.10;;;;;;4674248;28;10000505;-79
2022/06/19 05:53:58;;;;;;;5.55;3.70;;;27.50;53.40;;;;;;5029420;28;20022;-80
2022/06/19 05:56:25;;;;;;;7.32;3.72;;;27.40;54.30;;;;;;5030672;28;20476;-82
2022/06/19 05:58:56;;;;;;;6.53;3.60;;;26.90;54.80;;;;;;5031987;28;20041;-88
2022/06/19 06:01:24;;;;;;;4.63;3.55;;;26.40;56.00;;;;;;5028478;28;20383;-79
2022/06/19 06:03:51;;;;;;;4.72;3.63;;;26.40;56.60;;;;;;5029938;28;20514;-84
2022/06/19 06:06:22;;;;;;;4.95;3.55;;;26.80;56.20;;;;;;5014392;28;20037;-82
2022/06/19 06:08:49;;;;;;;6.65;3.45;;;26.60;56.30;;;;;;5025236;28;20049;-79
2022/06/19 06:11:15;;;;;;;4.28;3.10;;;27.30;55.40;;;;;;5031600;28;20041;-85
2022/06/19 06:13:41;;;;;;;4.90;3.47;;;27.90;54.80;;;;;;5031590;28;20448;-84
2022/06/19 06:16:08;;;;;;;4.38;3.38;;;27.70;56.10;;;;;;5029931;28;20028;-79
2022/06/19 06:18:35;;;;;;;5.72;3.30;;;27.70;54.50;;;;;;5027089;28;20025;-80
2022/06/19 06:21:04;;;;;;;5.13;3.45;;;28.10;54.70;;;;;;5027219;28;20030;-79
2022/06/19 06:23:30;;;;;;;5.50;3.60;;;28.50;54.80;;;;;;5023109;28;20108;-77
2022/06/19 06:26:25;;;;;;;7.88;3.90;;;29.00;54.20;;;;;;5030223;28;20025;-81
2022/06/19 06:28:52;;;;;;;6.55;3.92;;;29.10;54.00;;;;;;5035278;28;20029;-81
2022/06/19 06:31:19;;;;;;;7.20;4.20;;;28.30;54.80;;;;;;5026682;28;20033;-78
2022/06/19 06:33:45;;;;;;;9.57;4.82;;;28.30;54.60;;;;;;5020805;28;20120;-83
2022/06/19 06:36:11;;;;;;;9.25;5.07;;;28.70;54.40;;;;;;5033309;28;20120;-79
2022/06/19 06:38:37;;;;;;;6.32;4.30;;;28.40;55.10;;;;;;5034018;28;20033;-80
2022/06/19 06:41:05;;;;;;;7.00;4.65;;;28.40;56.10;;;;;;5027300;28;20074;-80
2022/06/19 06:43:32;;;;;;;5.30;3.47;;;28.70;56.10;;;;;;5028380;28;20033;-83
2022/06/19 06:46:10;;;;;;;5.55;3.70;;;28.70;55.10;;;;;;5013784;28;20033;-80
2022/06/19 06:48:35;;;;;;;7.07;4.13;;;28.80;55.50;;;;;;5019561;28;20021;-82
2022/06/19 06:51:23;;;;;;;4.35;3.20;;;29.00;55.10;;;;;;5035109;28;20025;-90
2022/06/19 06:53:48;;;;;;;4.95;3.55;;;29.70;54.80;;;;;;5015268;28;20080;-82
2022/06/19 06:56:14;;;;;;;6.05;3.33;;;29.90;53.50;;;;;;5018880;28;20025;-77
2022/06/19 06:58:40;;;;;;;5.32;3.33;;;30.20;53.40;;;;;;5032868;28;20456;-81
2022/06/19 07:01:15;;;;;;;8.13;3.30;;;30.50;52.60;;;;;;5023463;28;20084;-82
2022/06/19 07:03:44;;;;;;;6.28;2.97;;;30.60;51.10;;;;;;5021889;28;20052;-80
2022/06/19 07:06:11;;;;;;;6.30;3.10;;;30.30;49.60;;;;;;5030180;28;20069;-84
2022/06/19 07:08:37;;;;;;;4.47;3.13;;;29.60;50.30;;;;;;5021434;28;20390;-78
2022/06/19 07:11:03;;;;;;;5.15;3.55;;;29.90;51.90;;;;;;5022749;28;20026;-83
2022/06/19 07:13:29;;;;;;;4.55;2.88;;;30.20;51.50;;;;;;5014678;28;20026;-81
2022/06/19 07:15:58;;;;;;;4.85;3.08;;;30.30;50.80;;;;;;5019984;28;20021;-86
2022/06/19 07:18:24;;;;;;;4.17;3.10;;;30.60;50.40;;;;;;4677428;28;10000357;-82
2022/06/19 07:20:49;;;;;;;4.50;3.05;;;30.80;51.60;;;;;;5033486;28;20033;-87
2022/06/19 07:23:15;;;;;;;5.28;3.40;;;30.80;51.20;;;;;;5033874;28;20028;-81
2022/06/19 07:25:41;;;;;;;7.80;3.30;;;30.90;51.00;;;;;;5034305;28;20037;-89
2022/06/19 07:28:07;;;;;;;8.50;3.55;;;30.90;50.90;;;;;;5034070;28;20029;-84
2022/06/19 07:30:34;;;;;;;6.88;3.13;;;30.40;50.90;;;;;;5029791;28;20425;-88
2022/06/19 07:33:00;;;;;;;6.57;3.15;;;30.00;51.70;;;;;;5028016;28;20037;-83
2022/06/19 07:35:25;;;;;;;4.57;3.00;;;30.10;52.40;;;;;;5032617;28;20033;-87
2022/06/19 07:37:51;;;;;;;5.70;3.10;;;30.30;53.00;;;;;;5033341;28;20029;-84
2022/06/19 07:40:20;;;;;;;8.55;3.10;;;30.60;53.10;;;;;;5031453;28;20088;-81
2022/06/19 07:42:46;;;;;;;4.88;3.00;;;31.00;52.80;;;;;;5022009;28;20030;-80
2022/06/19 07:45:13;;;;;;;6.03;3.85;;;31.30;52.20;;;;;;5024360;28;20034;-81
2022/06/19 07:50:26;;;;;;;6.82;3.20;;;31.10;51.90;;;;;;5016013;28;20112;-83
2022/06/19 07:52:52;;;;;;;5.60;3.40;;;30.80;52.70;;;;;;5014123;28;20076;-90
2022/06/19 07:55:31;;;;;;;5.20;3.47;;;30.50;52.40;;;;;;5015434;28;20476;-83
2022/06/19 07:57:59;;;;;;;4.95;3.05;;;30.50;53.70;;;;;;5015077;28;20080;-84
2022/06/19 08:00:30;;;;;;;7.00;3.80;;;30.80;52.50;;;;;;5029470;28;20084;-84
2022/06/19 08:02:59;;;;;;;;;;;31.20;52.80;;;;;;5014497;28;20112;-83
2022/06/19 08:05:28;;;;;;;6.20;3.20;;;31.50;51.60;;;;;;4684274;28;10000173;-78
2022/06/19 08:07:57;;;;;;;5.40;2.90;;;31.90;53.00;;;;;;5010287;28;20053;-76
2022/06/19 08:10:29;;;;;;;8.80;3.25;;;31.90;51.30;;;;;;5013506;28;20075;-81
2022/06/19 08:12:55;;;;;;;4.25;3.33;;;31.90;50.60;;;;;;5011766;28;20032;-77
2022/06/19 08:15:21;;;;;;;4.75;3.67;;;32.10;53.20;;;;;;5011718;28;20504;-80
2022/06/19 08:17:49;;;;;;;7.93;3.25;;;32.40;51.40;;;;;;5031529;28;20040;-76
2022/06/19 08:20:16;;;;;;;4.88;3.47;;;32.60;51.00;;;;;;5030103;28;20069;-75
2022/06/19 08:22:42;;;;;;;6.97;3.65;;;32.80;51.90;;;;;;5010486;28;20026;-83
2022/06/19 08:25:10;;;;;;;7.70;3.28;;;32.90;50.70;;;;;;5009342;28;20033;-77
2022/06/19 08:27:40;;;;;;;9.40;4.10;;;32.90;50.70;;;;;;5009029;28;20121;-80
2022/06/19 08:30:08;;;;;;;5.32;3.08;;;33.10;51.10;;;;;;5010583;28;20091;-81
2022/06/19 08:32:34;;;;;;;4.75;3.20;;;33.30;50.10;;;;;;5013580;28;20499;-75
2022/06/19 08:35:00;;;;;;;4.30;3.20;;;33.40;50.20;;;;;;5030168;28;20041;-81
2022/06/19 08:37:25;;;;;;;5.80;3.20;;;33.40;49.80;;;;;;5029110;28;20021;-76
2022/06/19 08:39:51;;;;;;;4.60;3.15;;;33.50;49.40;;;;;;5027060;28;20044;-79
2022/06/19 08:42:56;;;;;;;4.07;2.95;;;33.40;50.20;;;;;;5010310;28;20018;-77
2022/06/19 08:45:50;;;;;;;4.57;3.05;;;33.50;50.10;;;;;;5015125;28;20108;-77
2022/06/19 08:48:45;;;;;;;3.83;2.90;;;33.30;48.00;;;;;;5030303;28;20107;-81
2022/06/19 08:51:25;;;;;;;6.45;2.97;;;33.40;48.00;;;;;;5022477;28;20116;-80
2022/06/19 08:54:10;;;;;;;8.27;3.33;;;33.60;46.50;;;;;;5029160;28;20022;-81
2022/06/19 08:56:47;;;;;;;4.28;2.70;;;33.40;46.20;;;;;;5032107;28;20086;-88
2022/06/19 08:59:25;;;;;;;4.05;2.40;;;32.60;46.40;;;;;;5020127;28;20038;-85
2022/06/19 09:02:01;;;;;;;9.63;2.60;;;32.20;46.10;;;;;;5018606;28;20560;-89
2022/06/19 09:08:18;;;;;;;4.63;2.50;;;32.50;45.40;;;;;;5012400;28;20096;-78
2022/06/19 09:11:12;;;;;;;5.68;2.75;;;32.60;45.20;;;;;;5030734;28;20033;-86
2022/06/19 09:14:07;;;;;;;4.88;2.70;;;32.80;45.40;;;;;;5031922;28;20372;-87
2022/06/19 09:16:52;;;;;;;3.85;2.55;;;32.50;44.00;;;;;;5030955;28;20028;-81
2022/06/19 09:19:54;;;;;;;3.90;2.50;;;32.70;46.90;;;;;;5026663;28;20045;-91
2022/06/19 09:23:09;;;;;;;4.22;2.40;;;33.40;45.70;;;;;;5028126;28;20523;-78
2022/06/19 09:26:08;;;;;;;3.60;2.53;;;33.40;46.60;;;;;;4988517;28;20070;-82
2022/06/19 09:28:49;;;;;;;4.05;2.63;;;33.70;44.00;;;;;;4990612;28;20049;-87
2022/06/19 09:31:17;;;;;;;4.60;3.42;;;32.80;44.70;;;;;;4989194;28;20026;-78
2022/06/19 09:34:01;;;;;;;4.57;2.60;;;32.50;43.70;;;;;;4989961;28;20623;-87
2022/06/19 09:37:01;;;;;;;7.15;3.20;;;32.10;44.50;;;;;;4990708;28;20041;-84
2022/06/19 09:40:01;;;;;;;4.55;2.70;;;32.50;45.40;;;;;;4974122;28;20483;-79
2022/06/19 09:42:58;;;;;;;5.07;2.70;;;33.40;45.00;;;;;;4972575;28;20077;-81
2022/06/19 09:45:47;;;;;;;5.03;2.88;;;33.50;44.90;;;;;;4972392;28;20030;-84
2022/06/19 09:48:26;;;;;;;4.68;2.30;;;34.00;44.50;;;;;;4977003;28;20034;-80
2022/06/19 09:51:05;;;;;;;5.43;2.65;;;34.20;44.50;;;;;;4978712;28;20125;-78
2022/06/19 09:53:43;;;;;;;5.03;2.38;;;34.50;44.30;;;;;;4952356;28;20039;-81
2022/06/19 09:56:37;;;;;;;4.07;2.30;;;34.60;45.20;;;;;;4965202;28;20035;-83
2022/06/19 09:59:11;;;;;;;6.63;2.70;;;34.10;43.70;;;;;;4994166;28;20046;-81
2022/06/19 10:01:38;;;;;;;4.75;2.83;;;33.40;45.70;;;;;;5031053;28;20112;-79
2022/06/19 10:04:43;;;;;;;4.07;2.53;;;32.90;43.80;;;;;;5035830;28;20052;-81
2022/06/19 10:07:51;;;;;;;7.78;2.90;;;32.80;45.10;;;;;;5020405;28;20084;-90
2022/06/19 10:10:30;;;;;;;5.28;2.50;;;33.30;44.90;;;;;;4975688;28;20030;-83
2022/06/19 10:13:00;;;;;;;3.42;2.60;;;33.40;45.70;;;;;;4959264;28;20037;-80
2022/06/19 10:15:31;;;;;;;;;;;33.40;44.00;;;;;;4970834;28;20038;-81
2022/06/19 10:18:04;;;;;;;3.55;2.55;;;33.70;45.30;;;;;;4979043;28;19952;-80
2022/06/19 10:20:57;;;;;;;3.70;2.63;;;34.00;44.30;;;;;;4978863;28;20042;-85
2022/06/19 10:23:26;;;;;;;6.15;2.80;;;33.90;45.00;;;;;;4991480;28;20030;-89
2022/06/19 10:26:01;;;;;;;3.65;2.55;;;33.90;44.50;;;;;;4979221;28;20030;-88
2022/06/19 10:28:48;;;;;;;4.18;2.70;;;34.30;45.40;;;;;;4978924;28;20035;-85
2022/06/19 10:31:20;;;;;;;4.75;2.60;;;34.70;44.60;;;;;;4978857;28;20108;-84
2022/06/19 10:34:28;;;;;;;5.50;2.53;;;34.70;45.20;;;;;;4978982;28;20125;-79
2022/06/19 10:37:01;;;;;;;6.82;3.20;;;35.10;45.00;;;;;;4978188;28;20031;-84
2022/06/19 10:39:49;;;;;;;3.92;2.92;;;34.50;42.50;;;;;;4994849;28;20030;-89
2022/06/19 10:42:42;;;;;;;6.95;3.08;;;33.90;43.10;;;;;;5015181;28;20034;-78
2022/06/19 10:45:23;;;;;;;4.65;2.88;;;33.50;44.70;;;;;;5035354;28;20108;-83
2022/06/19 10:48:30;;;;;;;4.10;2.90;;;34.20;45.70;;;;;;5034698;28;20025;-82
2022/06/19 10:51:01;;;;;;;4.20;2.90;;;34.90;43.90;;;;;;5015439;28;20460;-81
2022/06/19 10:53:49;;;;;;;3.70;2.80;;;35.00;43.80;;;;;;5016814;28;20030;-82
2022/06/19 10:56:52;;;;;;;4.25;2.80;;;35.30;43.70;;;;;;5034493;28;20473;-83
2022/06/19 10:59:21;;;;;;;5.70;2.80;;;35.10;43.10;;;;;;5019381;28;20057;-84
2022/06/19 11:04:57;;;;;;;;;;;34.80;43.80;;;;;;5036462;28;20163;-87
2022/06/19 11:07:25;;;;;;;4.63;3.03;;;34.70;43.10;;;;;;5034197;28;19909;-86
2022/06/19 11:09:55;;;;;;;7.05;3.03;;;34.50;44.10;;;;;;5034706;28;20067;-87
2022/06/19 11:12:39;;;;;;;4.78;2.60;;;33.80;43.70;;;;;;5035665;28;20036;-80
2022/06/19 11:15:16;;;;;;;4.35;2.50;;;33.90;44.80;;;;;;5033769;28;20029;-85
2022/06/19 11:17:42;;;;;;;4.88;2.63;;;33.50;44.40;;;;;;5034408;28;20041;-84
2022/06/19 11:20:30;;;;;;;3.95;2.80;;;33.90;45.10;;;;;;5034717;28;20029;-87
2022/06/19 11:23:05;;;;;;;6.22;2.70;;;34.80;45.10;;;;;;5027131;28;20025;-88
2022/06/19 11:25:43;;;;;;;4.53;2.67;;;35.00;44.60;;;;;;5034938;28;20033;-85
2022/06/19 11:28:18;;;;;;;6.13;2.58;;;35.30;44.90;;;;;;5034823;28;20057;-84
2022/06/19 11:31:09;;;;;;;6.40;2.63;;;35.50;44.60;;;;;;5028032;28;20552;-89
2022/06/19 11:33:36;;;;;;;3.92;2.40;;;35.60;44.10;;;;;;5022893;28;20052;-82
2022/06/19 11:36:06;;;;;;;4.75;2.72;;;35.80;43.80;;;;;;5027116;28;20025;-84
2022/06/19 11:38:43;;;;;;;8.48;2.85;;;35.50;42.70;;;;;;5034037;28;20036;-83
2022/06/19 11:41:20;;;;;;;6.32;2.95;;;35.30;44.90;;;;;;5033993;28;20403;-88
2022/06/19 11:44:04;;;;;;;4.30;3.10;;;35.10;43.20;;;;;;5034475;28;20032;-77
2022/06/19 11:46:31;;;;;;;11.57;3.40;;;35.20;43.40;;;;;;5034538;28;20029;-84
2022/06/19 11:49:30;;;;;;;8.70;3.25;;;35.00;43.40;;;;;;5020515;28;20026;-86
2022/06/19 11:52:01;;;;;;;5.57;3.50;;;34.60;42.10;;;;;;5015174;28;20481;-87
2022/06/19 11:54:34;;;;;;;7.13;3.40;;;33.90;43.70;;;;;;5013530;28;20100;-80
2022/06/19 11:57:01;;;;;;;6.88;3.00;;;34.00;43.60;;;;;;5021217;28;20018;-85
2022/06/19 11:59:54;;;;;;;5.63;2.83;;;33.90;44.00;;;;;;4684767;28;10001089;-82
2022/06/19 12:02:31;;;;;;;4.85;2.63;;;33.70;43.50;;;;;;5033099;28;20228;-91
2022/06/19 12:05:00;;;;;;;4.07;2.63;;;33.90;43.40;;;;;;5033695;28;20464;-79
2022/06/19 12:07:34;;;;;;;4.45;2.90;;;34.40;42.90;;;;;;5033936;28;20030;-85
2022/06/19 12:10:02;;;;;;;5.03;3.08;;;34.70;42.70;;;;;;5033053;28;20026;-81
2022/06/19 12:12:31;;;;;;;4.10;2.45;;;34.10;42.60;;;;;;5034400;28;20061;-77
2022/06/19 12:15:13;;;;;;;4.63;2.40;;;33.90;43.30;;;;;;5033757;28;20018;-86
2022/06/19 12:17:42;;;;;;;11.13;2.78;;;34.30;43.80;;;;;;5033351;28;20757;-79
2022/06/19 12:20:07;;;;;;;3.58;2.40;;;34.70;42.80;;;;;;5029963;28;20034;-82
2022/06/19 12:23:12;;;;;;;4.22;2.47;;;34.50;42.70;;;;;;5014575;28;20123;-81
2022/06/19 12:25:49;;;;;;;5.63;2.60;;;35.00;42.50;;;;;;5019213;28;20033;-83
2022/06/19 12:28:15;;;;;;;5.00;2.33;;;34.90;43.30;;;;;;5013312;28;20429;-88
2022/06/19 12:31:18;;;;;;;12.05;3.30;;;35.00;42.80;;;;;;4672842;28;9999651;-85
2022/06/19 12:33:46;;;;;;;4.63;2.58;;;34.80;43.50;;;;;;4976355;28;20037;-79
2022/06/19 12:36:15;;;;;;;5.18;2.90;;;34.50;42.50;;;;;;4971539;28;20177;-84
2022/06/19 12:38:44;;;;;;;4.72;2.70;;;34.50;43.80;;;;;;4954554;28;20043;-85
2022/06/19 12:41:26;;;;;;;4.13;2.50;;;34.40;42.10;;;;;;4955587;28;20123;-83
2022/06/19 12:44:07;;;;;;;7.60;2.80;;;34.80;42.50;;;;;;4955535;28;20729;-76
2022/06/19 12:46:48;;;;;;;7.05;2.58;;;35.20;41.90;;;;;;4964555;28;20023;-85
2022/06/19 12:49:20;;;;;;;5.47;2.88;;;35.00;42.70;;;;;;4954946;28;20047;-85
2022/06/19 12:51:51;;;;;;;5.07;2.70;;;34.90;43.20;;;;;;4972638;28;20022;-84
2022/06/19 12:54:44;;;;;;;4.70;2.40;;;34.90;43.30;;;;;;4953188;29;20042;-79
2022/06/19 12:57:26;;;;;;;4.07;2.42;;;34.90;42.50;;;;;;4937984;29;20051;-85
2022/06/19 13:00:08;;;;;;;4.28;2.50;;;35.00;41.40;;;;;;4937387;29;20031;-77
2022/06/19 13:03:14;;;;;;;4.10;2.38;;;35.10;42.80;;;;;;4957781;28;20841;-76
2022/06/19 13:05:44;;;;;;;3.42;2.20;;;35.00;43.10;;;;;;4943822;29;20039;-81
2022/06/19 13:08:42;;;;;;;3.95;2.58;;;35.00;42.30;;;;;;4989414;28;20128;-81
2022/06/19 13:11:28;;;;;;;4.80;2.60;;;35.40;42.90;;;;;;5012933;28;20034;-84
2022/06/19 13:14:15;;;;;;;5.57;2.38;;;35.70;42.20;;;;;;5017477;28;20025;-77
2022/06/19 13:17:03;;;;;;;4.25;2.40;;;35.60;41.60;;;;;;4685170;28;10001108;-89
2022/06/19 13:19:54;;;;;;;5.05;2.30;;;35.20;43.20;;;;;;5030922;28;20075;-79
2022/06/19 13:22:32;;;;;;;3.90;2.53;;;35.00;42.40;;;;;;5031647;28;20395;-80
2022/06/19 13:25:25;;;;;;;5.03;2.38;;;35.40;42.40;;;;;;5027719;28;20029;-80
2022/06/19 13:28:25;;;;;;;5.75;2.60;;;35.20;42.10;;;;;;5011694;28;20026;-88
2022/06/19 13:30:54;;;;;;;3.70;2.10;;;35.40;41.40;;;;;;5009773;28;20038;-76